Time;durP1;ratioP1;P1;durP2;ratioP2;P2;SDS_P1;SDS_P2;PMS_P1;PMS_P2;Temp;Humidity;BMP_temperature;BMP_pressure;BME280_temperature;BME280_humidity;BME280_pressure;Samples;Min_cycle;Max_cycle;Signal;HPM_P1;HPM_P2
2022/12/12 00:00:22;;;;;;;5.58;3.83;;;;;;;4.60;70.87;98700.08;1700817;83;22093;-67
2022/12/12 00:02:49;;;;;;;5.17;3.90;;;;;;;4.58;70.88;98707.50;1731233;83;20959;-67
2022/12/12 00:05:21;;;;;;;5.33;3.83;;;;;;;4.57;70.94;98712.51;1731283;82;21078;-67
2022/12/12 00:07:48;;;;;;;4.90;3.77;;;;;;;4.54;70.97;98710.41;1731163;82;20968;-67
2022/12/12 00:10:16;;;;;;;4.78;3.70;;;;;;;4.53;70.90;98709.34;1731596;82;21529;-67
2022/12/12 00:12:44;;;;;;;4.67;3.60;;;;;;;4.55;70.78;98717.81;1731172;82;21027;-68
2022/12/12 00:15:13;;;;;;;5.08;3.80;;;;;;;4.52;70.83;98728.37;1731057;82;21074;-69
2022/12/12 00:17:39;;;;;;;4.80;3.72;;;;;;;4.50;70.79;98721.76;1731269;82;20968;-67
2022/12/12 00:20:09;;;;;;;4.72;4.00;;;;;;;4.39;70.56;98741.56;1731351;83;21003;-68
2022/12/12 00:22:36;;;;;;;4.42;3.42;;;;;;;4.34;70.42;98730.97;1731144;83;21556;-67
2022/12/12 00:25:06;;;;;;;4.67;3.80;;;;;;;4.30;70.40;98735.19;1731327;81;21585;-67
2022/12/12 00:27:35;;;;;;;4.60;3.65;;;;;;;4.30;70.49;98743.13;1731193;82;20952;-68
2022/12/12 00:30:01;;;;;;;5.03;4.05;;;;;;;4.27;70.35;98744.17;1731464;82;21054;-67
2022/12/12 00:32:31;;;;;;;4.83;3.75;;;;;;;4.23;70.37;98746.54;1731186;82;21027;-67
2022/12/12 00:34:58;;;;;;;5.03;3.95;;;;;;;4.22;70.43;98739.67;1731324;83;20972;-68
2022/12/12 00:37:24;;;;;;;4.70;3.72;;;;;;;4.21;70.45;98742.03;1731432;82;21252;-66
2022/12/12 00:39:51;;;;;;;6.37;4.20;;;;;;;4.22;70.50;98747.60;1700396;83;21078;-67
2022/12/12 00:42:21;;;;;;;4.85;3.75;;;;;;;4.24;70.43;98752.08;1731018;82;20956;-67
2022/12/12 00:44:48;;;;;;;4.92;4.00;;;;;;;4.26;70.42;98751.31;1731155;82;21000;-67
2022/12/12 00:47:15;;;;;;;4.85;3.92;;;;;;;4.32;70.41;98759.52;1731230;81;21058;-67
2022/12/12 00:49:41;;;;;;;4.62;3.75;;;;;;;4.37;70.30;98752.91;1730739;83;21912;-67
2022/12/12 00:52:08;;;;;;;4.97;4.10;;;;;;;4.37;70.18;98758.20;1730970;83;21073;-68
2022/12/12 00:54:34;;;;;;;4.87;3.92;;;;;;;4.34;70.01;98752.11;1731327;83;21046;-67
2022/12/12 00:57:01;;;;;;;5.12;4.03;;;;;;;4.29;70.00;98749.47;1731077;82;21106;-67
2022/12/12 00:59:28;;;;;;;5.67;4.53;;;;;;;4.27;70.04;98747.60;1731084;83;21089;-67
2022/12/12 01:01:54;;;;;;;5.37;4.20;;;;;;;4.24;70.12;98742.83;1731023;83;21096;-67
2022/12/12 01:04:21;;;;;;;5.60;4.53;;;;;;;4.18;70.27;98738.61;1731381;83;21442;-68
2022/12/12 01:06:48;;;;;;;5.37;4.25;;;;;;;4.18;70.42;98742.58;1731045;82;21058;-67
2022/12/12 01:09:15;;;;;;;5.53;4.25;;;;;;;4.21;70.53;98749.95;1731409;82;20972;-67
2022/12/12 01:11:41;;;;;;;5.22;4.10;;;;;;;4.22;70.60;98750.24;1731216;81;20959;-66
2022/12/12 01:14:08;;;;;;;4.83;4.30;;;;;;;4.20;70.66;98757.63;1702255;84;21188;-67
2022/12/12 01:16:35;;;;;;;5.83;5.05;;;;;;;4.17;70.79;98761.58;1699633;83;21517;-67
2022/12/12 01:19:02;;;;;;;5.85;4.70;;;;;;;4.16;70.91;98764.48;1731220;83;21106;-66
2022/12/12 01:21:31;;;;;;;6.00;4.70;;;;;;;4.14;71.00;98766.05;1731058;82;21015;-66
2022/12/12 01:23:57;;;;;;;5.85;4.62;;;;;;;4.11;71.17;98773.70;1730813;82;21398;-66
2022/12/12 01:26:24;;;;;;;6.37;4.87;;;;;;;4.16;71.17;98765.81;1731308;81;21383;-66
2022/12/12 01:28:51;;;;;;;6.65;5.03;;;;;;;4.15;71.15;98774.80;1742548;82;22348;-66
2022/12/12 01:31:19;;;;;;;5.55;4.87;;;;;;;4.05;71.38;98774.23;1699636;84;21450;-66
2022/12/12 01:33:45;;;;;;;5.70;4.87;;;;;;;4.00;71.61;98780.80;1719944;82;21083;-65
2022/12/12 01:36:15;;;;;;;5.95;4.97;;;;;;;3.98;71.76;98776.28;1747492;82;21062;-65
2022/12/12 01:38:47;;;;;;;6.90;5.15;;;;;;;3.94;71.94;98762.80;1748542;81;21140;-65
2022/12/12 01:41:14;;;;;;;5.78;4.55;;;;;;;3.96;72.06;98774.44;1739143;81;20995;-66
2022/12/12 01:43:41;;;;;;;6.55;5.17;;;;;;;3.97;72.23;98767.56;1716124;83;20981;-65
2022/12/12 01:46:41;;;;;;;6.35;5.20;;;;;;;4.03;72.24;98776.84;1687688;85;21078;-66
2022/12/12 01:49:22;;;;;;;6.65;5.08;;;;;;;4.04;72.17;98802.20;1733469;82;20948;-67
2022/12/12 01:51:57;;;;;;;7.08;5.60;;;;;;;4.03;72.16;98775.00;1715749;83;21240;-67
2022/12/12 01:54:28;;;;;;;7.72;5.62;;;;;;;3.98;72.17;98761.75;1716123;83;21016;-67
2022/12/12 01:56:56;;;;;;;5.45;4.17;;;;;;;3.93;72.25;98749.86;1719721;82;21107;-67
2022/12/12 01:59:24;;;;;;;6.70;5.67;;;;;;;3.87;72.44;98746.92;1739821;81;21078;-67
2022/12/12 02:01:50;;;;;;;7.70;5.72;;;;;;;3.89;72.59;98750.11;1700167;83;21017;-67
2022/12/12 02:04:18;;;;;;;6.62;5.67;;;;;;;3.96;72.69;98752.78;1715983;83;21253;-67
2022/12/12 02:06:45;;;;;;;7.35;5.22;;;;;;;3.99;72.65;98773.41;1713359;82;21108;-67
2022/12/12 02:09:13;;;;;;;6.12;5.15;;;;;;;3.94;72.66;98777.33;1716309;82;21105;-66
2022/12/12 02:11:46;;;;;;;7.10;5.55;;;;;;;3.89;72.62;98764.11;1715960;83;21570;-67
2022/12/12 02:14:16;;;;;;;7.37;5.92;;;;;;;3.87;72.63;98774.66;1731075;82;21031;-67
2022/12/12 02:17:29;;;;;;;7.28;5.33;;;;;;;3.84;72.69;98765.39;1716823;82;21858;-68
2022/12/12 02:20:36;;;;;;;7.20;5.45;;;;;;;3.78;72.68;98755.06;1715798;83;21000;-67
2022/12/12 02:23:23;;;;;;;7.97;5.35;;;;;;;3.75;72.84;98750.58;1716758;82;20968;-65
2022/12/12 02:26:14;;;;;;;7.03;6.03;;;;;;;3.75;72.95;98755.04;1728961;82;21019;-67
2022/12/12 02:29:12;;;;;;;6.62;5.65;;;;;;;3.74;72.97;98753.45;1709215;82;21067;-66
2022/12/12 02:31:47;;;;;;;6.80;5.70;;;;;;;3.71;73.13;98734.95;1748425;82;21217;-66
2022/12/12 02:34:41;;;;;;;7.25;5.90;;;;;;;3.73;73.16;98738.14;1722911;82;21005;-66
2022/12/12 02:37:44;;;;;;;7.87;6.25;;;;;;;3.75;73.15;98725.49;1716050;82;21059;-68
2022/12/12 02:40:31;;;;;;;7.80;6.30;;;;;;;3.79;73.19;98721.02;1715788;83;21044;-67
2022/12/12 02:43:25;;;;;;;8.38;6.60;;;;;;;3.76;73.35;98731.56;1735550;82;21554;-67
2022/12/12 02:45:59;;;;;;;6.80;5.58;;;;;;;3.79;73.09;98725.77;1732316;82;21177;-66
2022/12/12 02:48:40;;;;;;;8.60;6.17;;;;;;;3.78;73.06;98730.77;1716016;83;21004;-67
2022/12/12 02:51:08;;;;;;;7.50;6.58;;;;;;;3.80;73.08;98740.55;1702015;82;20987;-67
2022/12/12 02:53:35;;;;;;;8.55;7.28;;;;;;;3.75;73.20;98763.78;1734037;82;21056;-67
2022/12/12 02:56:09;;;;;;;7.47;6.22;;;;;;;3.74;73.26;98779.86;1717955;82;21083;-68
2022/12/12 02:58:36;;;;;;;7.53;6.50;;;;;;;3.71;73.34;98779.05;1703556;84;21170;-68
2022/12/12 03:01:35;;;;;;;10.23;6.53;;;;;;;3.68;73.35;98770.31;1710033;84;21092;-68
2022/12/12 03:09:59;;;;;;;7.80;6.17;;;;;;;3.68;73.37;98754.48;1733361;82;21071;-67
2022/12/12 03:12:34;;;;;;;7.50;5.80;;;;;;;3.71;73.10;98757.40;1701378;83;21162;-67
2022/12/12 03:15:10;;;;;;;8.18;5.80;;;;;;;3.72;73.06;98762.18;1725526;82;21111;-67
2022/12/12 03:17:54;;;;;;;6.90;5.70;;;;;;;3.74;73.04;98779.86;1748593;81;21000;-67
2022/12/12 03:20:42;;;;;;;8.48;5.83;;;;;;;3.71;72.98;98790.94;1731118;82;21017;-67
2022/12/12 03:23:15;;;;;;;7.87;6.10;;;;;;;3.69;73.04;98774.57;1666343;85;21394;-67
2022/12/12 03:26:00;;;;;;;7.47;5.78;;;;;;;3.73;73.07;98771.68;1726327;81;21276;-67
2022/12/12 03:28:37;;;;;;;7.12;5.80;;;;;;;3.77;73.07;98775.39;1766240;81;20987;-66
2022/12/12 03:31:08;;;;;;;7.40;6.17;;;;;;;3.73;72.90;98791.48;1748900;81;21461;-66
2022/12/12 03:33:47;;;;;;;7.03;5.35;;;;;;;3.70;72.96;98790.14;1731422;82;21189;-65
2022/12/12 03:36:22;;;;;;;7.20;6.20;;;;;;;3.72;72.95;98790.70;1742755;81;20999;-66
2022/12/12 03:39:08;;;;;;;8.30;5.92;;;;;;;3.70;72.80;98807.84;1766774;80;21201;-66
2022/12/12 03:41:42;;;;;;;7.78;5.70;;;;;;;3.69;72.83;98804.41;1709230;81;21588;-66
2022/12/12 03:44:23;;;;;;;9.00;6.10;;;;;;;3.67;72.82;98801.73;1732143;81;21058;-66
2022/12/12 03:47:06;;;;;;;7.30;6.45;;;;;;;3.66;72.86;98810.72;1760380;81;21014;-66
2022/12/12 03:49:47;;;;;;;7.55;5.90;;;;;;;3.68;72.95;98809.92;1731417;81;20968;-67
2022/12/12 03:52:24;;;;;;;6.85;5.47;;;;;;;3.70;73.01;98820.51;1730913;82;21251;-66
2022/12/12 03:54:56;;;;;;;7.97;6.33;;;;;;;3.75;72.96;98840.86;1720601;82;21040;-68
2022/12/12 03:57:35;;;;;;;7.87;6.10;;;;;;;3.75;72.98;98832.44;1734465;82;21008;-67
2022/12/12 04:00:06;;;;;;;7.42;5.60;;;;;;;3.75;72.88;98832.94;1715602;83;21002;-68
2022/12/12 04:03:04;;;;;;;7.50;5.90;;;;;;;3.71;72.90;98831.33;1712237;83;21108;-68
2022/12/12 04:06:25;;;;;;;7.53;5.92;;;;;;;3.72;72.88;98833.47;1727168;82;21212;-68
2022/12/12 04:08:13;;;;;;;7.22;5.70;;;;;;;3.66;72.85;98814.68;1711620;83;21157;-67
2022/12/12 04:14:00;;;;;;;7.12;6.05;;;;;;;3.70;72.89;98807.31;1715827;83;21033;-66
2022/12/12 04:16:31;;;;;;;7.80;5.80;;;;;;;3.69;72.87;98793.84;1715932;83;21590;-66
2022/12/12 04:19:03;;;;;;;7.90;6.28;;;;;;;3.71;72.89;98801.49;1716131;83;21693;-66
2022/12/12 04:24:38;;;;;;;7.47;5.47;;;;;;;3.59;73.10;98822.03;1677390;82;21117;-66
2022/12/12 04:27:15;;;;;;;8.18;6.30;;;;;;;3.59;73.24;98812.79;1711181;83;21066;-66
2022/12/12 04:30:07;;;;;;;6.85;5.50;;;;;;;3.59;73.27;98824.14;1699104;84;21459;-67
2022/12/12 04:46:18;;;;;;;8.07;5.67;;;;;;;4.68;70.90;98825.73;1778405;79;22611;-67
2022/12/12 04:48:51;;;;;;;7.10;5.60;;;;;;;5.38;67.55;98816.81;1790649;79;20944;-68
2022/12/12 04:51:29;;;;;;;7.70;5.75;;;;;;;5.38;66.20;98814.95;1779786;80;21164;-67
2022/12/12 04:54:10;;;;;;;6.65;5.25;;;;;;;5.38;65.70;98820.25;1779347;78;21513;-67
2022/12/12 04:56:37;;;;;;;7.53;5.53;;;;;;;5.28;65.63;98824.22;1786206;79;20939;-67
2022/12/12 04:59:04;;;;;;;8.63;5.85;;;;;;;5.38;65.26;98827.41;1767191;79;21050;-68
2022/12/12 05:01:56;;;;;;;7.67;5.97;;;;;;;5.70;64.48;98826.34;1783191;79;21631;-67
2022/12/12 05:04:32;;;;;;;7.20;5.60;;;;;;;5.91;63.86;98835.03;1814287;79;21479;-67
2022/12/12 05:07:12;;;;;;;8.20;6.30;;;;;;;6.15;63.00;98835.27;1815107;79;20864;-67
2022/12/12 05:09:39;;;;;;;8.55;6.00;;;;;;;6.01;62.74;98834.50;1750016;79;21015;-66
2022/12/12 05:12:06;;;;;;;7.72;5.80;;;;;;;6.09;62.35;98833.17;1785474;80;20969;-67
2022/12/12 05:14:33;;;;;;;7.92;5.90;;;;;;;6.23;61.79;98846.66;1752739;80;21578;-67
2022/12/12 05:17:07;;;;;;;9.03;6.78;;;;;;;6.26;61.54;98848.23;1785645;80;21147;-67
2022/12/12 05:19:33;;;;;;;8.75;6.55;;;;;;;6.31;61.33;98852.17;1785127;79;21003;-67
2022/12/12 05:22:02;;;;;;;9.18;6.60;;;;;;;6.55;60.59;98843.63;1759259;81;21545;-66
2022/12/12 05:24:30;;;;;;;8.35;6.42;;;;;;;4.19;65.31;98855.14;1782740;79;21067;-66
2022/12/12 05:26:58;;;;;;;9.28;6.83;;;;;;;3.57;67.75;98872.95;1789408;80;20960;-66
2022/12/12 05:29:25;;;;;;;9.00;6.87;;;;;;;3.36;69.03;98885.98;1749967;80;21396;-66
2022/12/12 05:31:52;;;;;;;7.58;5.83;;;;;;;3.25;69.86;98900.91;1776319;80;21042;-66
2022/12/12 05:34:19;;;;;;;9.18;6.70;;;;;;;3.20;70.66;98906.67;1810386;78;21011;-67
2022/12/12 05:36:46;;;;;;;8.13;6.00;;;;;;;3.10;71.13;98900.77;1757703;79;21012;-67
2022/12/12 05:39:13;;;;;;;8.55;6.80;;;;;;;3.03;71.74;98900.97;1758666;81;21066;-67
2022/12/12 05:41:39;;;;;;;8.80;6.10;;;;;;;3.00;71.98;98893.55;1758151;81;21268;-67
2022/12/12 05:44:06;;;;;;;9.05;6.90;;;;;;;3.05;72.31;98907.30;1742822;79;21055;-68
2022/12/12 05:46:33;;;;;;;7.95;5.50;;;;;;;3.04;72.55;98910.47;1755387;80;21023;-68
2022/12/12 05:48:59;;;;;;;7.28;5.47;;;;;;;3.02;72.88;98908.59;1757949;81;21105;-68
2022/12/12 05:51:26;;;;;;;9.03;6.00;;;;;;;2.97;72.94;98901.95;1757239;80;21046;-69
2022/12/12 05:53:53;;;;;;;7.53;5.22;;;;;;;2.94;72.96;98907.72;1754701;78;21261;-69
2022/12/12 05:56:21;;;;;;;8.45;5.67;;;;;;;2.92;73.12;98929.58;1751361;80;20947;-69
2022/12/12 05:58:48;;;;;;;7.78;5.60;;;;;;;2.85;73.22;98938.20;1754515;80;20932;-69
2022/12/12 06:01:14;;;;;;;8.10;5.50;;;;;;;2.79;73.33;98936.55;1744066;79;21102;-69
2022/12/12 06:03:43;;;;;;;8.15;5.60;;;;;;;2.74;73.44;98939.13;1759857;79;21014;-68
2022/12/12 06:06:09;;;;;;;6.92;5.10;;;;;;;2.73;73.61;98941.47;1743168;81;21222;-70
2022/12/12 06:08:36;;;;;;;7.22;4.80;;;;;;;2.75;73.75;98951.27;1757988;81;20967;-68
2022/12/12 06:11:06;;;;;;;7.70;5.10;;;;;;;2.70;73.78;98956.46;1720567;81;21004;-70
2022/12/12 06:13:33;;;;;;;7.28;5.08;;;;;;;2.69;73.83;98952.23;1755030;80;21078;-70
2022/12/12 06:16:09;;;;;;;7.80;5.00;;;;;;;2.64;73.93;98956.94;1769682;80;21015;-69
2022/12/12 06:18:36;;;;;;;7.55;5.40;;;;;;;2.63;73.81;98958.48;1761139;80;21498;-69
2022/12/12 06:21:08;;;;;;;8.23;5.65;;;;;;;2.54;73.65;98960.23;1731711;81;21538;-69
2022/12/12 06:23:36;;;;;;;;;;;;;;;2.44;73.60;98960.10;1732479;81;21037;-69
2022/12/12 06:26:04;;;;;;;7.65;5.03;;;;;;;2.40;73.67;98966.88;1751125;79;20567;-68
2022/12/12 06:28:30;;;;;;;8.93;5.53;;;;;;;2.33;73.71;98956.50;1756477;79;21042;-69
2022/12/12 06:30:57;;;;;;;8.15;5.40;;;;;;;2.33;73.86;98961.77;1758110;81;21489;-68
2022/12/12 06:33:24;;;;;;;9.40;6.15;;;;;;;2.35;73.90;98958.91;1746093;79;21545;-67
2022/12/12 06:36:15;;;;;;;7.88;5.48;;;;;;;2.37;74.01;98967.88;1435665;80;9999853;-68
2022/12/12 06:38:41;;;;;;;8.68;5.85;;;;;;;2.40;73.69;98969.50;1730167;80;21088;-68
2022/12/12 06:41:12;;;;;;;9.20;6.00;;;;;;;2.43;74.03;98980.88;1756607;81;21047;-67
2022/12/12 06:43:39;;;;;;;7.40;5.55;;;;;;;2.52;74.01;98981.28;1756743;81;21648;-68
2022/12/12 06:46:09;;;;;;;10.30;6.50;;;;;;;2.55;73.90;98980.27;1755820;81;21050;-67
2022/12/12 06:48:36;;;;;;;9.95;6.87;;;;;;;2.56;73.73;98984.49;1757067;81;21797;-66
2022/12/12 06:51:07;;;;;;;9.43;6.42;;;;;;;2.51;73.41;98992.34;1756244;81;21090;-68
2022/12/12 06:53:35;;;;;;;9.78;6.50;;;;;;;2.44;72.99;98989.09;1756771;81;21125;-68
2022/12/12 06:56:16;;;;;;;8.60;6.33;;;;;;;2.42;72.79;98996.95;1753966;81;21023;-67
2022/12/12 06:58:43;;;;;;;9.88;6.92;;;;;;;2.37;72.58;99000.81;1747913;81;27426;-68
2022/12/12 07:01:12;;;;;;;11.78;8.53;;;;;;;2.30;72.51;99002.30;1755831;81;21944;-69
2022/12/12 07:03:38;;;;;;;11.65;8.03;;;;;;;2.32;72.52;99000.23;1756134;81;21098;-68
2022/12/12 07:06:06;;;;;;;10.58;7.55;;;;;;;2.34;72.53;99002.11;1756040;81;21042;-69
2022/12/12 07:08:36;;;;;;;10.20;6.95;;;;;;;2.36;72.53;99001.34;1755769;79;21040;-68
2022/12/12 07:11:05;;;;;;;11.33;7.65;;;;;;;2.35;72.52;99003.17;1756335;81;21050;-68
2022/12/12 07:13:32;;;;;;;10.18;7.00;;;;;;;2.36;72.57;99003.97;1759582;80;21625;-68
2022/12/12 07:16:00;;;;;;;12.93;9.20;;;;;;;2.39;72.57;99011.39;1755909;81;21553;-68
2022/12/12 07:18:26;;;;;;;11.35;7.53;;;;;;;2.40;72.57;99001.13;1756905;79;21019;-67
2022/12/12 07:20:53;;;;;;;11.75;7.80;;;;;;;2.39;72.47;99005.33;1756915;81;21039;-68
2022/12/12 07:35:09;;;;;;;10.90;8.37;;;;;;;2.92;71.04;99034.27;1770772;78;27932;-73
2022/12/12 07:37:36;;;;;;;10.43;7.20;;;;;;;2.91;70.70;99038.75;1758515;81;21035;-73
2022/12/12 07:40:03;;;;;;;11.48;8.05;;;;;;;2.90;70.62;99046.92;1748147;81;21621;-75
2022/12/12 07:42:30;;;;;;;10.30;7.42;;;;;;;2.77;70.43;99042.79;1736958;81;20995;-75
2022/12/12 07:44:57;;;;;;;11.43;8.23;;;;;;;2.77;70.63;99054.66;1759177;81;20991;-75
2022/12/12 07:47:23;;;;;;;10.48;7.28;;;;;;;2.81;70.58;99063.67;1761054;81;20857;-72
2022/12/12 07:49:50;;;;;;;13.15;8.30;;;;;;;2.78;70.43;99065.47;1753987;81;21026;-75
2022/12/12 07:52:16;;;;;;;12.63;8.48;;;;;;;2.79;70.60;99068.38;1748444;81;22385;-74
2022/12/12 07:54:43;;;;;;;12.90;9.48;;;;;;;2.94;70.79;99065.95;1754942;80;21414;-73
2022/12/12 07:57:09;;;;;;;12.82;9.38;;;;;;;3.04;70.71;99054.22;1748475;81;21466;-73
2022/12/12 07:59:36;;;;;;;14.80;9.65;;;;;;;3.17;70.68;99061.51;1738667;81;21079;-73
2022/12/12 08:02:03;;;;;;;14.33;9.95;;;;;;;3.27;70.62;99062.42;1756139;81;20999;-74
2022/12/12 08:04:30;;;;;;;15.28;9.75;;;;;;;3.41;70.58;99056.25;1758901;80;21167;-73
2022/12/12 08:06:57;;;;;;;12.53;8.65;;;;;;;3.53;70.48;99058.24;1778539;80;21084;-74
2022/12/12 08:09:26;;;;;;;12.65;9.03;;;;;;;3.63;70.23;99066.00;1788883;78;21667;-73
2022/12/12 08:11:56;;;;;;;13.95;9.10;;;;;;;3.68;69.97;99076.60;1753406;81;21528;-73
2022/12/12 08:14:24;;;;;;;13.20;9.35;;;;;;;3.72;69.79;99071.13;1748925;81;20948;-73
2022/12/12 08:16:51;;;;;;;13.30;9.30;;;;;;;3.73;69.33;99076.67;1777077;80;21816;-74
2022/12/12 08:19:18;;;;;;;15.58;10.40;;;;;;;3.70;69.16;99074.52;1748272;82;21036;-73
2022/12/12 08:21:44;;;;;;;17.50;10.75;;;;;;;3.74;69.16;99059.24;1745524;81;21022;-73
2022/12/12 08:24:14;;;;;;;16.85;10.95;;;;;;;3.79;68.97;99061.69;1761693;81;21090;-73
2022/12/12 08:26:41;;;;;;;13.70;10.03;;;;;;;3.86;68.97;99059.64;1750436;81;21113;-72
2022/12/12 08:29:08;;;;;;;14.10;9.78;;;;;;;3.89;68.71;99060.46;1746656;81;21235;-74
2022/12/12 08:31:34;;;;;;;13.78;9.58;;;;;;;3.85;68.19;99064.13;1742239;81;20944;-73
2022/12/12 08:34:01;;;;;;;12.37;9.38;;;;;;;3.76;67.75;99071.69;1769425;80;20968;-73
2022/12/12 08:36:30;;;;;;;13.18;9.30;;;;;;;3.69;67.61;99082.18;1741679;81;21058;-72
2022/12/12 08:38:58;;;;;;;13.15;9.48;;;;;;;3.73;66.53;99077.99;1744149;81;21513;-72
2022/12/12 08:41:24;;;;;;;14.18;9.60;;;;;;;3.73;66.10;99073.50;1762794;81;21139;-73
2022/12/12 08:43:51;;;;;;;13.20;9.68;;;;;;;3.76;66.05;99076.97;1770099;80;21606;-73
2022/12/12 08:46:18;;;;;;;14.65;10.20;;;;;;;3.44;66.36;99077.40;1763933;80;21511;-73
2022/12/12 08:48:46;;;;;;;18.20;10.80;;;;;;;3.36;66.54;99090.52;1752675;81;20970;-72
2022/12/12 08:51:14;;;;;;;15.28;10.58;;;;;;;3.33;66.55;99086.25;1748081;81;21049;-72
2022/12/12 08:53:46;;;;;;;15.35;11.22;;;;;;;3.27;66.55;99086.70;1766751;81;21762;-72
2022/12/12 08:56:13;;;;;;;15.32;11.05;;;;;;;3.24;66.47;99093.78;1762859;81;20936;-72
2022/12/12 08:58:39;;;;;;;15.88;11.35;;;;;;;3.28;66.72;99090.92;1756775;81;21046;-72
2022/12/12 09:01:12;;;;;;;15.38;10.58;;;;;;;3.34;66.75;99094.44;1749115;81;21430;-71
2022/12/12 09:03:38;;;;;;;15.80;10.95;;;;;;;3.37;66.56;99080.75;1739824;82;21054;-71
2022/12/12 09:06:07;;;;;;;15.68;11.40;;;;;;;3.39;66.57;99096.63;1745081;81;22345;-71
2022/12/12 09:08:33;;;;;;;15.85;11.38;;;;;;;3.36;66.42;99104.23;1764749;81;21042;-71
2022/12/12 09:11:00;;;;;;;18.80;12.37;;;;;;;3.38;66.56;99100.81;1770739;81;21149;-71
2022/12/12 09:13:26;;;;;;;17.90;12.88;;;;;;;3.32;65.93;99097.83;1757990;81;21074;-71
2022/12/12 09:15:53;;;;;;;19.52;12.88;;;;;;;3.20;65.71;99094.80;1746316;81;21073;-71
2022/12/12 09:18:20;;;;;;;20.05;12.85;;;;;;;3.08;65.66;99091.45;1756029;81;21234;-71
2022/12/12 09:20:51;;;;;;;20.12;13.88;;;;;;;3.01;65.97;99105.34;1749189;81;21022;-72
2022/12/12 09:23:18;;;;;;;18.05;12.47;;;;;;;2.92;65.97;99111.55;1757862;81;26891;-71
2022/12/12 09:25:44;;;;;;;20.12;13.48;;;;;;;2.84;66.16;99111.97;1746241;81;21045;-71
2022/12/12 09:28:12;;;;;;;19.32;13.03;;;;;;;2.83;66.41;99124.88;1766686;81;21018;-71
2022/12/12 09:30:39;;;;;;;21.10;13.90;;;;;;;2.80;66.49;99116.93;1769810;81;21154;-71
2022/12/12 09:33:06;;;;;;;20.68;14.00;;;;;;;2.76;66.56;99126.37;1753970;81;21065;-71
2022/12/12 09:35:32;;;;;;;19.60;13.22;;;;;;;2.80;66.82;99130.64;1758601;81;21022;-71
2022/12/12 09:37:58;;;;;;;21.07;14.28;;;;;;;2.87;67.06;99137.86;1754542;81;21093;-71
2022/12/12 09:41:10;;;;;;;23.50;14.75;;;;;;;2.91;67.12;99149.52;1747098;81;20967;-72
2022/12/12 09:43:54;;;;;;;22.62;14.60;;;;;;;2.92;67.16;99148.99;1751684;81;21259;-71
2022/12/12 09:46:46;;;;;;;20.82;13.18;;;;;;;2.88;66.98;99148.67;1758268;81;21113;-71
2022/12/12 09:49:34;;;;;;;;;;;;;;;2.91;67.11;99147.41;1754470;81;21046;-71
2022/12/12 09:52:01;;;;;;;20.82;13.60;;;;;;;2.89;67.06;99151.59;1758568;81;20440;-73
2022/12/12 09:54:27;;;;;;;21.45;14.60;;;;;;;2.82;67.05;99150.42;1744320;81;20998;-72
2022/12/12 09:57:08;;;;;;;22.17;14.68;;;;;;;2.84;67.28;99159.44;1759564;81;21128;-71
2022/12/12 10:00:04;;;;;;;22.58;15.30;;;;;;;2.82;67.32;99165.45;1764443;81;21465;-71
2022/12/12 10:03:00;;;;;;;20.57;13.80;;;;;;;2.84;67.40;99187.65;1769849;80;21044;-73
2022/12/12 10:06:04;;;;;;;22.35;14.53;;;;;;;2.80;67.07;99183.38;1779163;80;21060;-72
2022/12/12 10:08:52;;;;;;;21.40;13.20;;;;;;;2.80;67.17;99184.69;1776375;80;21029;-71
2022/12/12 10:11:50;;;;;;;21.35;13.88;;;;;;;2.79;67.29;99183.07;1750269;82;21473;-72
2022/12/12 10:14:43;;;;;;;21.33;13.88;;;;;;;2.80;67.27;99194.72;1766166;80;21029;-71
2022/12/12 10:17:16;;;;;;;21.90;13.53;;;;;;;2.81;67.24;99195.51;1755573;80;21606;-71
2022/12/12 10:20:03;;;;;;;20.50;12.50;;;;;;;2.74;66.61;99186.44;1740696;81;20978;-71
2022/12/12 10:22:53;;;;;;;18.00;12.03;;;;;;;2.69;66.37;99192.14;1730315;82;21048;-72
2022/12/12 10:25:46;;;;;;;19.02;12.58;;;;;;;2.61;66.03;99189.38;1740437;81;21030;-72
2022/12/12 10:28:18;;;;;;;19.70;13.38;;;;;;;2.59;66.15;99205.42;1708356;81;21041;-71
2022/12/12 10:31:33;;;;;;;16.85;11.20;;;;;;;2.74;65.59;99193.03;1750507;81;27240;-72
2022/12/12 10:34:37;;;;;;;17.52;11.48;;;;;;;2.74;64.81;99212.01;1739629;82;21030;-71
2022/12/12 10:37:42;;;;;;;20.60;12.55;;;;;;;2.73;64.44;99212.53;1763661;81;20999;-72
2022/12/12 10:40:21;;;;;;;18.32;11.85;;;;;;;2.74;64.50;99208.05;1770096;81;21121;-70
2022/12/12 10:43:15;;;;;;;20.88;12.98;;;;;;;2.73;64.45;99216.98;1754234;81;21078;-71
2022/12/12 10:46:08;;;;;;;19.42;12.37;;;;;;;2.73;64.52;99212.53;1725665;81;21560;-71
2022/12/12 10:48:35;;;;;;;20.25;12.73;;;;;;;2.71;64.64;99218.55;1753166;81;21023;-70
2022/12/12 10:51:04;;;;;;;20.40;12.73;;;;;;;2.81;64.73;99232.42;1740012;82;20959;-71
2022/12/12 10:53:31;;;;;;;21.15;12.55;;;;;;;2.75;64.42;99238.64;1758000;81;21833;-71
2022/12/12 10:56:08;;;;;;;20.70;12.80;;;;;;;2.75;64.62;99242.08;1738305;82;21525;-70
2022/12/12 10:58:38;;;;;;;19.42;12.55;;;;;;;2.80;64.61;99254.56;1755781;81;21003;-71
2022/12/12 11:01:32;;;;;;;18.73;11.77;;;;;;;2.76;64.26;99240.23;1510486;79;10017204;-71
2022/12/12 11:03:59;;;;;;;20.13;12.67;;;;;;;2.75;64.42;99247.88;1611633;81;10000445;-71
2022/12/12 11:06:41;;;;;;;18.10;11.65;;;;;;;2.74;64.64;99244.45;1748126;81;21062;-71
2022/12/12 11:09:23;;;;;;;19.20;11.90;;;;;;;2.73;64.59;99243.34;1751028;81;21190;-71
2022/12/12 11:12:15;;;;;;;19.07;12.05;;;;;;;2.73;64.32;99261.80;1760471;81;21736;-70
2022/12/12 11:14:50;;;;;;;15.60;10.20;;;;;;;2.70;63.94;99253.05;1749843;81;21505;-71
2022/12/12 11:17:23;;;;;;;18.55;11.25;;;;;;;2.65;63.57;99255.61;1748787;81;21050;-71
2022/12/12 11:19:52;;;;;;;16.32;10.98;;;;;;;2.81;63.49;99253.00;1751388;81;20999;-71
2022/12/12 11:22:18;;;;;;;16.93;11.30;;;;;;;2.97;63.08;99248.78;1748576;81;21104;-71
2022/12/12 11:24:47;;;;;;;15.38;9.93;;;;;;;3.00;62.57;99250.15;1753766;81;21082;-71
2022/12/12 11:27:27;;;;;;;14.55;10.05;;;;;;;2.98;62.06;99245.09;1744838;81;21041;-71
2022/12/12 11:29:58;;;;;;;16.65;10.45;;;;;;;2.96;62.31;99244.55;1752349;81;21553;-73
2022/12/12 11:32:31;;;;;;;15.72;9.95;;;;;;;3.01;62.57;99239.87;1739935;81;21007;-73
2022/12/12 11:35:00;;;;;;;14.38;9.30;;;;;;;2.99;61.92;99241.94;1754487;81;22004;-72
2022/12/12 11:37:36;;;;;;;15.25;10.45;;;;;;;2.97;62.14;99236.91;1742713;81;20939;-73
2022/12/12 11:40:03;;;;;;;15.05;9.80;;;;;;;2.97;61.97;99248.78;1763622;81;21560;-70
2022/12/12 11:42:31;;;;;;;15.13;10.18;;;;;;;2.96;61.72;99241.92;1749904;81;21612;-71
2022/12/12 11:45:05;;;;;;;15.23;10.05;;;;;;;2.90;62.04;99248.14;1757036;81;21030;-72
2022/12/12 11:47:45;;;;;;;18.35;11.75;;;;;;;2.97;62.04;99246.14;1747424;81;21129;-72
2022/12/12 11:50:20;;;;;;;15.65;10.45;;;;;;;3.04;62.29;99253.91;1749739;81;21071;-72
2022/12/12 11:52:48;;;;;;;14.80;9.35;;;;;;;3.15;62.42;99253.53;1758224;81;21097;-72
2022/12/12 11:55:17;;;;;;;16.35;11.03;;;;;;;2.97;62.65;99254.06;1740451;79;21045;-73
2022/12/12 11:58:24;;;;;;;17.90;11.68;;;;;;;2.95;62.95;99257.44;1752787;81;21117;-71
2022/12/12 12:01:25;;;;;;;15.05;9.43;;;;;;;2.93;62.97;99254.76;1741601;81;21220;-71
2022/12/12 12:04:15;;;;;;;16.45;10.60;;;;;;;2.89;62.81;99264.98;1753768;81;21046;-73
2022/12/12 12:06:59;;;;;;;17.05;10.95;;;;;;;2.80;63.01;99255.36;1746665;81;21470;-71
2022/12/12 12:10:01;;;;;;;14.78;9.70;;;;;;;2.68;62.73;99255.14;1768822;81;21129;-72
2022/12/12 12:12:34;;;;;;;17.52;10.63;;;;;;;2.65;62.80;99251.66;1768087;81;21046;-72
2022/12/12 12:15:07;;;;;;;;;;;;;;;2.62;63.29;99262.67;1760120;81;21897;-72
2022/12/12 14:35:48;;;;;;;14.67;10.37;;;;;;;2.29;72.77;99379.58;1854573;77;24015;-71
2022/12/12 14:38:40;;;;;;;16.05;10.68;;;;;;;2.31;71.65;99384.63;1903263;75;21009;-71
2022/12/12 14:41:20;;;;;;;14.73;10.32;;;;;;;2.25;70.61;99384.23;1896635;74;21112;-72
2022/12/12 14:43:54;;;;;;;13.98;9.50;;;;;;;2.25;70.22;99381.08;1864886;76;21484;-69
2022/12/12 14:46:21;;;;;;;16.95;10.48;;;;;;;2.27;69.96;99381.66;1867539;76;20883;-71
2022/12/12 14:48:47;;;;;;;16.45;10.80;;;;;;;2.30;69.60;99384.33;1927193;74;21069;-72
2022/12/12 14:51:29;;;;;;;17.20;11.55;;;;;;;2.31;69.24;99382.80;1901937;74;20990;-72
2022/12/12 14:53:57;;;;;;;15.35;9.75;;;;;;;2.34;69.08;99386.80;1867511;76;21235;-71
2022/12/12 14:56:43;;;;;;;13.60;9.10;;;;;;;2.38;68.91;99380.03;1867783;76;20958;-70
2022/12/12 14:59:24;;;;;;;15.90;10.25;;;;;;;2.41;68.52;99386.16;1866402;76;20958;-71
2022/12/12 15:02:20;;;;;;;18.60;10.65;;;;;;;2.42;68.36;99394.34;1889902;76;21003;-71